Map

Track Data

SID SEASON NUMBER BASIN SUBBASIN NAME ISO_TIME NATURE LAT LON WMO_WIND WMO_PRES WMO_AGENCY TRACK_TYPE DIST2LAND LANDFALL IFLAG USA_AGENCY USA_ATCF_ID USA_LAT USA_LON USA_RECORD USA_STATUS USA_WIND USA_PRES USA_SSHS USA_R34_NE USA_R34_SE USA_R34_SW USA_R34_NW USA_R50_NE USA_R50_SE USA_R50_SW USA_R50_NW USA_R64_NE USA_R64_SE USA_R64_SW USA_R64_NW USA_POCI USA_ROCI USA_RMW USA_EYE TOKYO_LAT TOKYO_LON TOKYO_GRADE TOKYO_WIND TOKYO_PRES TOKYO_R50_DIR TOKYO_R50_LONG TOKYO_R50_SHORT TOKYO_R30_DIR TOKYO_R30_LONG TOKYO_R30_SHORT TOKYO_LAND CMA_LAT CMA_LON CMA_CAT CMA_WIND CMA_PRES HKO_LAT HKO_LON HKO_CAT HKO_WIND HKO_PRES NEWDELHI_LAT NEWDELHI_LON NEWDELHI_GRADE NEWDELHI_WIND NEWDELHI_PRES NEWDELHI_CI NEWDELHI_DP NEWDELHI_POCI REUNION_LAT REUNION_LON REUNION_TYPE REUNION_WIND REUNION_PRES REUNION_TNUM REUNION_CI REUNION_RMW REUNION_R34_NE REUNION_R34_SE REUNION_R34_SW REUNION_R34_NW REUNION_R50_NE REUNION_R50_SE REUNION_R50_SW REUNION_R50_NW REUNION_R64_NE REUNION_R64_SE REUNION_R64_SW REUNION_R64_NW BOM_LAT BOM_LON BOM_TYPE BOM_WIND BOM_PRES BOM_TNUM BOM_CI BOM_RMW BOM_R34_NE BOM_R34_SE BOM_R34_SW BOM_R34_NW BOM_R50_NE BOM_R50_SE BOM_R50_SW BOM_R50_NW BOM_R64_NE BOM_R64_SE BOM_R64_SW BOM_R64_NW BOM_ROCI BOM_POCI BOM_EYE BOM_POS_METHOD BOM_PRES_METHOD NADI_LAT NADI_LON NADI_CAT NADI_WIND NADI_PRES WELLINGTON_LAT WELLINGTON_LON WELLINGTON_WIND WELLINGTON_PRES DS824_LAT DS824_LON DS824_STAGE DS824_WIND DS824_PRES TD9636_LAT TD9636_LON TD9636_STAGE TD9636_WIND TD9636_PRES TD9635_LAT TD9635_LON TD9635_WIND TD9635_PRES TD9635_ROCI NEUMANN_LAT NEUMANN_LON NEUMANN_CLASS NEUMANN_WIND NEUMANN_PRES MLC_LAT MLC_LON MLC_CLASS MLC_WIND MLC_PRES USA_GUST BOM_GUST BOM_GUST_PER REUNION_GUST REUNION_GUST_PER USA_SEAHGT USA_SEARAD_NE USA_SEARAD_SE USA_SEARAD_SW USA_SEARAD_NW STORM_SPEED STORM_DIR
1991289N06156 1991 80 WP MM RUTH 1991-10-16 00:00:00 NR 6.00000 156.000 main 1125 1100 O_____________ jtwc_wp WP251991 6.00000 156.000 15 -1 10 270
1991289N06156 1991 80 WP MM RUTH 1991-10-16 03:00:00 NR 6.00259 155.500 main 1100 1076 P_____________ WP251991 6.00259 155.500 15 -1 10 270
1991289N06156 1991 80 WP MM RUTH 1991-10-16 06:00:00 NR 6.00000 155.000 main 1076 1053 O_____________ jtwc_wp WP251991 6.00000 155.000 15 -1 10 269
1991289N06156 1991 80 WP MM RUTH 1991-10-16 09:00:00 NR 5.99246 154.500 main 1053 1034 P_____________ WP251991 5.99246 154.500 15 -1 10 270
1991289N06156 1991 80 WP MM RUTH 1991-10-16 12:00:00 NR 6.00000 154.000 main 1034 1016 O_____________ jtwc_wp WP251991 6.00000 154.000 15 -1 10 273
1991289N06156 1991 80 WP MM RUTH 1991-10-16 15:00:00 NR 6.04245 153.500 main 1016 1013 P_____________ WP251991 6.04245 153.500 15 -1 10 276
1991289N06156 1991 80 WP MM RUTH 1991-10-16 18:00:00 NR 6.10000 153.000 main 1013 1002 O_____________ jtwc_wp WP251991 6.10000 153.000 15 -1 10 276
1991289N06156 1991 80 WP MM RUTH 1991-10-16 21:00:00 NR 6.14997 152.492 main 1002 1002 P_____________ WP251991 6.14997 152.492 17 -1 10 276
1991289N06156 1991 80 WP MM RUTH 1991-10-17 00:00:00 NR 6.20000 152.000 main 1004 1000 O_____________ jtwc_wp WP251991 6.20000 152.000 20 -1 10 276
1991289N06156 1991 80 WP MM RUTH 1991-10-17 03:00:00 NR 6.24996 151.535 main 999 999 P_____________ WP251991 6.24996 151.535 20 -1 9 276
1991289N06156 1991 80 WP MM RUTH 1991-10-17 06:00:00 NR 6.30000 151.100 main 1008 1008 O_____________ jtwc_wp WP251991 6.30000 151.100 20 -1 9 277
1991289N06156 1991 80 WP MM RUTH 1991-10-17 09:00:00 NR 6.34997 150.685 main 1008 1005 P_____________ WP251991 6.34997 150.685 20 -1 8 277
1991289N06156 1991 80 WP MM RUTH 1991-10-17 12:00:00 NR 6.40000 150.300 main 1005 995 O_____________ jtwc_wp WP251991 6.40000 150.300 20 -1 7 277
1991289N06156 1991 80 WP MM RUTH 1991-10-17 15:00:00 NR 6.44246 149.942 main 992 992 P_____________ WP251991 6.44246 149.942 20 -1 7 278
1991289N06156 1991 80 WP MM RUTH 1991-10-17 18:00:00 NR 6.50000 149.600 main 994 989 O_____________ jtwc_wp WP251991 6.50000 149.600 20 -1 7 282
1991289N06156 1991 80 WP MM RUTH 1991-10-17 21:00:00 NR 6.59249 149.243 main 995 993 P_____________ WP251991 6.59249 149.243 20 -1 7 286
1991289N06156 1991 80 WP MM RUTH 1991-10-18 00:00:00 NR 6.70000 148.900 main 1000 998 O_____________ jtwc_wp WP251991 6.70000 148.900 20 -1 7 288
1991289N06156 1991 80 WP MM RUTH 1991-10-18 03:00:00 NR 6.79997 148.592 main 1006 1003 P_____________ WP251991 6.79997 148.592 20 -1 6 289
1991289N06156 1991 80 WP MM RUTH 1991-10-18 06:00:00 NR 6.90000 148.300 main 1013 1012 O_____________ jtwc_wp WP251991 6.90000 148.300 20 -1 6 289
1991289N06156 1991 80 WP MM RUTH 1991-10-18 09:00:00 NR 6.99998 148.000 main 1021 1021 P_____________ WP251991 6.99998 148.000 20 -1 6 289
1991289N06156 1991 80 WP MM RUTH 1991-10-18 12:00:00 NR 7.10000 147.700 main 1031 1031 O_____________ jtwc_wp WP251991 7.10000 147.700 20 -1 6 288
1991289N06156 1991 80 WP MM RUTH 1991-10-18 15:00:00 NR 7.19999 147.393 main 1042 1042 P_____________ WP251991 7.19999 147.393 20 -1 6 289
1991289N06156 1991 80 WP MM RUTH 1991-10-18 18:00:00 NR 7.30000 147.100 main 1053 1053 O_____________ jtwc_wp WP251991 7.30000 147.100 20 -1 6 289
1991289N06156 1991 80 WP MM RUTH 1991-10-18 21:00:00 NR 7.39247 146.842 main 1064 1064 P_____________ WP251991 7.39247 146.842 22 -1 5 292
1991289N06156 1991 80 WP MM RUTH 1991-10-19 00:00:00 NR 7.50000 146.600 main 1075 1075 O_____________ jtwc_wp WP251991 7.50000 146.600 25 -1 5 297
1991289N06156 1991 80 WP MM RUTH 1991-10-19 03:00:00 NR 7.63497 146.357 main 1087 1087 P_____________ WP251991 7.63497 146.357 25 -1 6 301
1991289N06156 1991 80 WP MM RUTH 1991-10-19 06:00:00 NR 7.80000 146.100 main 1110 1110 O_____________ jtwc_wp WP251991 7.80000 146.100 25 -1 7 303
1991289N06156 1991 80 WP MM RUTH 1991-10-19 09:00:00 NR 7.99251 145.800 main 1135 1135 P_____________ WP251991 7.99251 145.800 25 -1 6 332
1991289N06156 1991 80 WP MM RUTH 1991-10-19 12:00:00 TS 8.30000 145.833 1004 tokyo main 1168 1168 OOO___________ jtwc_wp WP251991 8.20000 145.500 25 -1 8.50000 146.500 2 1004 0 0 0 8.50000 146.500 1 23 1004 6 356
1991289N06156 1991 80 WP MM RUTH 1991-10-19 15:00:00 TS 8.56748 145.754 main 1202 1202 PPP___________ WP251991 8.39998 145.235 25 -1 8.73497 146.280 2 1004 0 0 8.73500 146.265 1 23 1004 6 337
1991289N06156 1991 80 WP MM RUTH 1991-10-19 18:00:00 TS 8.84000 145.600 1004 tokyo main 1226 1226 OOO___________ jtwc_wp WP251991 8.60000 145.000 25 -1 9.00000 146.000 2 1004 0 0 0 9.00000 146.000 1 23 1004 7 326
1991289N06156 1991 80 WP MM RUTH 1991-10-19 21:00:00 TS 9.13586 145.371 main 1262 1262 PPP___________ WP251991 8.79249 144.785 25 -1 9.30758 145.635 2 1004 0 0 9.30753 145.693 1 26 1002 8 319
1991289N06156 1991 80 WP MM RUTH 1991-10-20 00:00:00 TS 9.40000 145.100 1004 tokyo main 1299 1299 OOO___________ jtwc_wp WP251991 9.00000 144.600 25 -1 9.60000 145.300 2 1004 0 0 0 9.60000 145.400 1 29 1000 7 318
1991289N06156 1991 80 WP MM RUTH 1991-10-20 03:00:00 TS 9.62162 144.921 main 1324 1324 PPP___________ WP251991 9.24997 144.450 25 -1 9.80742 145.127 2 1003 0 0 9.80746 145.185 1 29 1000 6 325
1991289N06156 1991 80 WP MM RUTH 1991-10-20 06:00:00 TS 9.89231 144.746 1002 tokyo main 1361 1361 OOOO__________ jtwc_wp WP251991 9.50000 144.300 25 -1 10.0000 145.000 2 1002 0 0 0 10.0000 145.000 1 29 1000 10.6000 144.500 TD 30 995 7 326
1991289N06156 1991 80 WP MM RUTH 1991-10-20 09:00:00 TS 10.1611 144.546 main 1397 1397 PPPP__________ WP251991 9.70000 144.107 27 -1 10.2425 144.815 2 1002 0 0 10.2425 144.807 1 29 1000 10.7575 144.360 TD 32 992 7 322
1991289N06156 1991 80 WP MM RUTH 1991-10-20 12:00:00 TS 10.4200 144.333 1002 tokyo main 1423 1423 OOOO__________ jtwc_wp WP251991 9.90000 143.900 30 -1 10.5000 144.600 2 1002 0 0 0 10.5000 144.600 1 29 1000 10.9000 144.200 TS 35 990 7 319
1991289N06156 1991 80 WP MM RUTH 1991-10-20 15:00:00 TS 10.6644 144.109 main 1460 1460 PPPP__________ WP251991 10.1425 143.700 30 -1 10.7500 144.365 2 1002 0 0 10.7500 144.365 1 29 1000 11.0150 144.008 TS 37 987 6 315
1991289N06156 1991 80 WP MM RUTH 1991-10-20 18:00:00 TS 10.8750 143.875 1002 tokyo main 1486 1486 OOOO__________ jtwc_wp WP251991 10.4000 143.500 30 -1 11.0000 144.100 2 1002 0 0 0 11.0000 144.100 1 29 1000 11.1000 143.800 TS 40 985 6 312
1991289N06156 1991 80 WP MM RUTH 1991-10-20 21:00:00 TS 11.0918 143.634 main 1515 1515 PPPP__________ WP251991 10.6575 143.300 32 -1 11.2800 143.808 2 1001 0 0 11.2799 143.830 1 29 1000 11.1500 143.600 TS 42 985 6 309
1991289N06156 1991 80 WP MM RUTH 1991-10-21 00:00:00 TS 11.2750 143.375 1000 tokyo main 1542 1542 OOOO__________ jtwc_wp WP251991 10.9000 143.100 35 0 11.5000 143.500 2 1000 0 0 0 11.5000 143.500 1 29 1000 11.2000 143.400 TS 45 985 6 298
1991289N06156 1991 80 WP MM RUTH 1991-10-21 03:00:00 TS 11.3900 143.074 main 1554 1546 PPPP__________ WP251991 11.1075 142.892 37 0 11.5800 143.185 2 998 0 0 11.5802 143.020 1 33 997 11.2925 143.200 TS 47 982 6 290
1991289N06156 1991 80 WP MM RUTH 1991-10-21 06:00:00 TS 11.4750 142.800 35 996 tokyo main 1553 1549 OOOO__________ jtwc_wp WP251991 11.3000 142.700 40 0 11.6000 142.900 3 35 996 0 9 100 100 0 11.6000 142.600 2 38 995 11.4000 143.000 STS 50 980 5 293
1991289N06156 1991 80 WP MM RUTH 1991-10-21 09:00:00 TS 11.5731 142.622 main 1557 1553 PPPP__________ WP251991 11.5075 142.550 42 0 11.6424 142.685 3 37 995 0 9 100 100 11.6424 142.455 2 38 995 11.5000 142.800 STS 52 977 4 302
1991289N06156 1991 80 WP MM RUTH 1991-10-21 12:00:00 TS 11.6750 142.475 40 994 tokyo main 1564 1557 OOOO__________ jtwc_wp WP251991 11.7000 142.400 45 0 11.7000 142.500 3 40 994 0 9 100 100 0 11.7000 142.400 2 38 995 11.6000 142.600 STS 55 975 4 302
1991289N06156 1991 80 WP MM RUTH 1991-10-21 15:00:00 TS 11.7725 142.291 main 1568 1565 PPPP__________ WP251991 11.8500 142.207 47 0 11.7775 142.292 3 42 993 0 9 110 110 11.7775 142.257 2 38 992 11.6850 142.407 STS 57 972 4 302
1991289N06156 1991 80 WP MM RUTH 1991-10-21 18:00:00 TS 11.9000 142.100 45 992 tokyo main 1572 1569 OOOO__________ jtwc_wp WP251991 12.0000 142.000 50 0 11.9000 142.100 3 45 992 0 9 120 120 0 11.9000 142.100 2 38 990 11.8000 142.200 STS 60 970 5 310
1991289N06156 1991 80 WP MM RUTH 1991-10-21 21:00:00 TS 12.0737 141.918 main 1588 1588 PPPP__________ WP251991 12.1850 141.800 52 0 12.0625 141.950 3 47 988 0 9 135 135 12.0775 141.965 2 43 987 11.9700 141.957 STS 62 967 5 318
1991289N06156 1991 80 WP MM RUTH 1991-10-22 00:00:00 TS 12.3000 141.725 50 985 tokyo main 1601 1601 OOOO__________ jtwc_wp WP251991 12.4000 141.600 55 0 12.3000 141.800 4 50 985 0 9 150 150 0 12.3000 141.800 3 48 985 12.2000 141.700 T 65 965 6 322
1991289N06156 1991 80 WP MM RUTH 1991-10-22 03:00:00 TS 12.5725 141.515 main 1623 1623 PPPP__________ WP251991 12.6425 141.407 57 0 12.6424 141.630 4 52 982 0 9 155 155 12.5275 141.572 3 48 985 12.4775 141.450 T 65 965 7 323
1991289N06156 1991 80 WP MM RUTH 1991-10-22 06:00:00 TS 12.8750 141.275 55 980 tokyo main 1646 1642 OOOO__________ jtwc_wp WP251991 12.9000 141.200 60 0 13.0000 141.400 4 55 980 9 40 40 9 160 160 0 12.8000 141.300 3 48 985 12.8000 141.200 T 65 965 8 322
1991289N06156 1991 80 WP MM RUTH 1991-10-22 09:00:00 TS 13.1880 141.019 main 1666 1642 PPPP__________ WP251991 13.1574 140.980 65 1 13.2725 141.087 4 60 975 9 45 45 9 170 170 13.1574 141.030 3 53 982 13.1649 140.980 T 67 962 8 317
1991289N06156 1991 80 WP MM RUTH 1991-10-22 12:00:00 TS 13.4750 140.700 65 970 tokyo main 1643 1604 OOOO__________ jtwc_wp WP251991 13.4000 140.700 70 1 13.5000 140.700 5 65 970 9 50 50 9 180 180 0 13.5000 140.700 3 58 980 13.5000 140.700 T 70 960 9 306
1991289N06156 1991 80 WP MM RUTH 1991-10-22 15:00:00 TS 13.7106 140.289 main 1604 1563 PPPP__________ WP251991 13.6225 140.330 75 1 13.7300 140.265 5 70 965 9 60 60 9 190 190 13.7450 140.273 3 63 975 13.7450 140.288 T 72 957 9 295
1991289N06156 1991 80 WP MM RUTH 1991-10-22 18:00:00 TS 13.8750 139.825 75 960 tokyo main 1555 1512 OOOO__________ jtwc_wp WP251991 13.8000 139.900 80 1 13.9000 139.800 5 75 960 9 70 70 9 200 200 0 13.9000 139.800 4 68 970 13.9000 139.800 T 75 955 9 285
1991289N06156 1991 80 WP MM RUTH 1991-10-22 21:00:00 TS 13.9543 139.359 main 1514 1461 PPPP__________ WP251991 13.9150 139.457 87 2 13.9650 139.342 5 80 952 9 80 80 9 205 205 13.9650 139.342 4 72 965 13.9725 139.292 T 80 950 9 278
1991289N06156 1991 80 WP MM RUTH 1991-10-23 00:00:00 TS 14.0000 138.900 85 945 tokyo main 1461 1422 OOOO__________ jtwc_wp WP251991 14.0000 139.000 95 2 14.0000 138.900 5 85 945 9 90 90 9 210 210 0 14.0000 138.900 4 77 960 14.0000 138.800 ST 85 945 9 279
1991289N06156 1991 80 WP MM RUTH 1991-10-23 03:00:00 TS 14.0892 138.486 main 1422 1382 PPPP__________ WP251991 14.1074 138.550 102 3 14.0999 138.500 5 87 940 9 95 95 9 230 230 14.0999 138.500 4 82 955 14.0498 138.392 ST 87 942 8 282
1991289N06156 1991 80 WP MM RUTH 1991-10-23 06:00:00 TS 14.1750 138.075 90 935 tokyo main 1382 1340 OOOO__________ jtwc_wp WP251991 14.2000 138.100 110 3 14.2000 138.100 5 90 935 9 100 100 9 250 250 0 14.2000 138.100 5 87 950 14.1000 138.000 ST 90 940 8 280
1991289N06156 1991 80 WP MM RUTH 1991-10-23 09:00:00 TS 14.2306 137.631 main 1329 1288 PPPP__________ WP251991 14.2574 137.650 117 4 14.2575 137.657 5 92 930 9 110 110 9 250 250 14.2575 137.657 5 92 945 14.1500 137.557 ST 95 935 9 277
1991289N06156 1991 80 WP MM RUTH 1991-10-23 12:00:00 TS 14.2750 137.175 95 925 tokyo main 1288 1245 OOOO__________ jtwc_wp WP251991 14.3000 137.200 125 4 14.3000 137.200 5 95 925 9 120 120 9 250 250 0 14.3000 137.200 5 97 940 14.2000 137.100 SuperT 100 930 9 276
1991289N06156 1991 80 WP MM RUTH 1991-10-23 15:00:00 TS 14.3192 136.732 main 1235 1194 PPPP__________ WP251991 14.3499 136.757 130 4 14.3424 136.757 5 97 920 9 125 125 9 255 255 14.3424 136.757 5 97 937 14.2424 136.657 SuperT 102 927 9 277
1991289N06156 1991 80 WP MM RUTH 1991-10-23 18:00:00 TS 14.3750 136.275 100 915 tokyo main 1194 1141 OOOO__________ jtwc_wp WP251991 14.4000 136.300 135 4 14.4000 136.300 5 100 915 9 130 130 9 260 260 0 14.4000 136.300 5 97 935 14.3000 136.200 SuperT 105 925 9 278
1991289N06156 1991 80 WP MM RUTH 1991-10-23 21:00:00 TS 14.4549 135.782 main 1144 1091 PPPP__________ WP251991 14.4424 135.807 137 5 14.4924 135.808 5 105 910 9 140 140 9 280 280 14.4924 135.808 5 101 932 14.3924 135.708 SuperT 107 922 10 280
1991289N06156 1991 80 WP MM RUTH 1991-10-24 00:00:00 TS 14.5500 135.275 110 905 tokyo main 1094 1041 OOOO__________ jtwc_wp WP251991 14.5000 135.300 140 5 14.6000 135.300 5 110 905 9 150 150 9 300 300 0 14.6000 135.300 6 106 930 14.5000 135.200 SuperT 110 920 10 281
1991289N06156 1991 80 WP MM RUTH 1991-10-24 03:00:00 TS 14.6386 134.781 main 1041 992 PPPP__________ WP251991 14.5849 134.800 142 5 14.6923 134.807 5 112 902 9 160 160 9 362 362 14.6923 134.807 6 111 925 14.5848 134.707 SuperT 110 920 10 282
1991289N06156 1991 80 WP MM RUTH 1991-10-24 06:00:00 TS 14.7500 134.275 115 900 tokyo main 995 947 OOOO__________ jtwc_wp WP251991 14.7000 134.300 145 5 14.8000 134.300 5 115 900 9 170 170 9 425 425 0 14.8000 134.300 6 116 920 14.7000 134.200 SuperT 110 920 10 285
1991289N06156 1991 80 WP MM RUTH 1991-10-24 09:00:00 TS 14.9050 133.738 main 936 893 PPPP__________ WP251991 14.8424 133.800 145 5 14.9425 133.750 5 115 897 9 170 170 9 425 425 14.9425 133.750 6 116 915 14.8925 133.650 SuperT 110 920 11 287
1991289N06156 1991 80 WP MM RUTH 1991-10-24 12:00:00 TS 15.0750 133.200 115 895 tokyo main 893 847 OOOO__________ jtwc_wp WP251991 15.0000 133.300 145 5 15.1000 133.200 5 115 895 9 170 170 9 425 425 0 15.1000 133.200 6 116 910 15.1000 133.100 SuperT 110 920 11 287
1991289N06156 1991 80 WP MM RUTH 1991-10-24 15:00:00 TS 15.2230 132.692 main 847 807 PPPP__________ WP251991 15.1424 132.800 142 5 15.2498 132.692 5 115 895 9 170 170 9 425 425 15.2498 132.692 6 116 910 15.2499 132.585 SuperT 110 920 10 287
1991289N06156 1991 80 WP MM RUTH 1991-10-24 18:00:00 TS 15.3750 132.200 115 895 tokyo main 807 764 OOOO__________ jtwc_wp WP251991 15.3000 132.300 140 5 15.4000 132.200 5 115 895 9 170 170 9 425 425 0 15.4000 132.200 6 116 910 15.4000 132.100 SuperT 110 920 10 289
1991289N06156 1991 80 WP MM RUTH 1991-10-24 21:00:00 TS 15.5462 131.703 main 764 738 PPPP__________ WP251991 15.4999 131.800 140 5 15.5425 131.685 5 115 897 9 170 170 9 400 400 15.5425 131.685 6 116 910 15.5999 131.643 SuperT 110 920 10 290
1991289N06156 1991 80 WP MM RUTH 1991-10-25 00:00:00 TS 15.7250 131.225 115 900 tokyo main 729 706 OOOO__________ jtwc_wp WP251991 15.7000 131.300 140 5 15.7000 131.200 5 115 900 9 170 170 9 375 375 0 15.7000 131.200 6 116 910 15.8000 131.200 SuperT 110 920 10 291
1991289N06156 1991 80 WP MM RUTH 1991-10-25 03:00:00 TS 15.8943 130.776 main 706 678 PPPP__________ WP251991 15.8424 130.792 140 5 15.8923 130.785 5 112 902 9 170 170 9 375 375 15.8923 130.785 6 116 910 15.9500 130.742 SuperT 110 920 9 293
1991289N06156 1991 80 WP MM RUTH 1991-10-25 06:00:00 TS 16.0750 130.350 110 905 tokyo main 685 654 OOOO__________ jtwc_wp WP251991 16.0000 130.300 140 5 16.1000 130.400 5 110 905 9 170 170 9 375 375 0 16.1000 130.400 6 116 910 16.1000 130.300 SuperT 110 920 9 296
1991289N06156 1991 80 WP MM RUTH 1991-10-25 09:00:00 TS 16.2761 129.945 main 648 619 PPPP__________ WP251991 16.2349 129.842 137 5 16.2923 130.015 5 110 905 9 170 170 9 375 375 16.2923 130.015 6 116 910 16.2848 129.907 SuperT 110 920 9 298
1991289N06156 1991 80 WP MM RUTH 1991-10-25 12:00:00 TS 16.5000 129.525 110 905 tokyo main 619 593 OOOO__________ jtwc_wp WP251991 16.5000 129.400 135 4 16.5000 129.600 5 110 905 9 170 170 9 375 375 0 16.5000 129.600 6 116 910 16.5000 129.500 SuperT 110 920 10 299
1991289N06156 1991 80 WP MM RUTH 1991-10-25 15:00:00 TS 16.7443 129.049 main 584 568 PPPP__________ WP251991 16.7499 128.950 132 4 16.7425 129.115 5 110 905 9 170 170 9 375 375 16.7425 129.115 6 116 910 16.7425 129.015 SuperT 112 917 11 298
1991289N06156 1991 80 WP MM RUTH 1991-10-25 18:00:00 TS 17.0000 128.550 110 905 tokyo main 568 541 OOOO__________ jtwc_wp WP251991 17.0000 128.500 130 4 17.0000 128.600 5 110 905 9 170 170 9 375 375 0 17.0000 128.600 6 116 910 17.0000 128.500 SuperT 115 915 11 299
1991289N06156 1991 80 WP MM RUTH 1991-10-25 21:00:00 TS 17.2573 128.070 main 549 526 PPPP__________ WP251991 17.2573 128.057 130 4 17.2573 128.107 5 110 905 9 170 170 9 375 375 17.2573 128.115 6 116 915 17.2574 128.000 SuperT 110 920 11 298
1991289N06156 1991 80 WP MM RUTH 1991-10-26 00:00:00 TS 17.5000 127.575 110 905 tokyo main 527 494 OOOO__________ jtwc_wp WP251991 17.5000 127.600 130 4 17.5000 127.600 5 110 905 9 170 170 9 375 375 0 17.5000 127.600 6 116 920 17.5000 127.500 SuperT 105 925 11 294
1991289N06156 1991 80 WP MM RUTH 1991-10-26 03:00:00 TS 17.7094 127.028 main 484 436 PPPP__________ WP251991 17.7149 127.107 127 4 17.7076 127.035 5 107 907 9 170 170 9 375 375 17.7077 126.977 6 116 920 17.7074 126.992 SuperT 100 927 11 291
1991289N06156 1991 80 WP MM RUTH 1991-10-26 06:00:00 TS 17.9000 126.500 105 910 tokyo main 436 401 OOOO__________ jtwc_wp WP251991 17.9000 126.600 125 4 17.9000 126.500 5 105 910 9 170 170 9 375 375 0 17.9000 126.400 6 116 920 17.9000 126.500 ST 95 930 10 293
1991289N06156 1991 80 WP MM RUTH 1991-10-26 09:00:00 TS 18.0928 126.080 main 401 358 PPPP__________ WP251991 18.0574 126.100 122 4 18.0995 126.107 5 102 912 9 170 170 9 387 362 18.0993 126.065 6 111 920 18.1148 126.050 ST 92 932 9 295
1991289N06156 1991 80 WP MM RUTH 1991-10-26 12:00:00 TS 18.2750 125.650 100 915 tokyo main 358 295 OOOO__________ jtwc_wp WP251991 18.2000 125.600 120 4 18.3000 125.700 5 100 915 9 170 170 4 400 350 0 18.3000 125.700 6 106 920 18.3000 125.600 ST 90 935 10 292
1991289N06156 1991 80 WP MM RUTH 1991-10-26 15:00:00 TS 18.4657 125.090 main 295 233 PPPP__________ WP251991 18.3724 125.100 117 4 18.5301 125.123 5 97 917 9 165 165 4 387 337 18.5305 125.023 6 106 925 18.4299 125.115 ST 87 937 11 287
1991289N06156 1991 80 WP MM RUTH 1991-10-26 18:00:00 TS 18.6000 124.500 95 920 tokyo main 233 180 OOOO__________ jtwc_wp WP251991 18.5000 124.600 115 4 18.7000 124.500 5 95 920 9 160 160 4 375 325 0 18.7000 124.300 6 106 930 18.5000 124.600 ST 85 940 11 280
1991289N06156 1991 80 WP MM RUTH 1991-10-26 21:00:00 TS 18.6487 123.945 main 170 128 PPPP__________ WP251991 18.5450 124.085 112 3 18.7600 123.912 5 92 925 9 155 155 4 375 325 18.7598 123.740 6 101 935 18.5300 124.042 ST 85 940 10 270
1991289N06156 1991 80 WP MM RUTH 1991-10-27 00:00:00 TS 18.6000 123.450 90 930 tokyo main 128 85 OOOO__________ jtwc_wp WP251991 18.5000 123.600 110 3 18.7000 123.400 5 90 930 9 150 150 8 375 325 0 18.7000 123.300 5 97 940 18.5000 123.500 ST 85 940 9 257
1991289N06156 1991 80 WP MM RUTH 1991-10-27 03:00:00 TS 18.4580 123.043 main 74 42 PPPP__________ WP251991 18.3649 123.177 107 3 18.5223 123.012 5 90 932 9 150 150 8 375 325 18.5223 122.970 5 97 940 18.4224 123.012 ST 85 940 8 245
1991289N06156 1991 80 WP MM RUTH 1991-10-27 06:00:00 TS 18.2750 122.700 90 935 tokyo main 42 15 OOOO__________ jtwc_wp WP251991 18.2000 122.800 105 3 18.3000 122.700 5 90 935 9 150 150 8 375 325 0 18.3000 122.700 5 97 940 18.3000 122.600 ST 85 940 7 242
1991289N06156 1991 80 WP MM RUTH 1991-10-27 09:00:00 TS 18.1262 122.374 main 21 0 PPPP__________ WP251991 18.0924 122.435 102 3 18.1350 122.378 5 87 937 9 140 140 8 375 325 18.1274 122.415 5 92 945 18.1499 122.270 ST 82 942 7 245
1991289N06156 1991 80 WP MM RUTH 1991-10-27 12:00:00 TS 18.0000 122.075 85 940 tokyo main 0 0 OOOO__________ jtwc_wp WP251991 18.0000 122.100 100 3 18.0000 122.100 5 85 940 9 130 130 8 375 325 0 18.0000 122.100 5 87 950 18.0000 122.000 T 80 945 6 248
1991289N06156 1991 80 WP MM RUTH 1991-10-27 15:00:00 TS 17.8975 121.773 main 0 0 PPPP__________ WP251991 17.8850 121.777 92 2 17.8774 121.893 5 82 945 9 125 125 8 375 325 17.9427 121.678 5 82 955 17.8849 121.743 T 72 950 6 252
1991289N06156 1991 80 WP MM RUTH 1991-10-27 18:00:00 TS 17.8250 121.500 80 950 tokyo main 0 0 OOOO__________ jtwc_wp WP251991 17.8000 121.500 85 2 17.8000 121.700 5 80 950 9 120 120 8 375 325 0 17.9000 121.300 4 77 960 17.8000 121.500 T 65 955 5 255
1991289N06156 1991 80 WP MM RUTH 1991-10-27 21:00:00 TS 17.7687 121.273 main 0 0 PPPP__________ WP251991 17.7774 121.285 77 1 17.7850 121.450 5 77 955 9 110 110 8 337 312 17.7849 121.112 4 72 965 17.7275 121.242 T 57 962 4 260
1991289N06156 1991 80 WP MM RUTH 1991-10-28 00:00:00 TS 17.7500 121.075 75 960 tokyo main 0 0 OOOO__________ jtwc_wp WP251991 17.8000 121.100 70 1 17.8000 121.200 5 75 960 9 100 100 9 300 300 0 17.7000 121.000 4 68 970 17.7000 121.000 STS 50 970 4 269
1991289N06156 1991 80 WP MM RUTH 1991-10-28 03:00:00 TS 17.7650 120.889 main 0 0 PPPP__________ WP251991 17.8350 120.900 67 1 17.7849 121.000 5 72 965 9 100 100 9 300 300 17.7200 120.858 4 68 970 17.7199 120.800 STS 47 972 4 282
1991289N06156 1991 80 WP MM RUTH 1991-10-28 06:00:00 TS 17.8250 120.700 70 970 tokyo main 0 0 OOOO__________ jtwc_wp WP251991 17.9000 120.700 65 1 17.8000 120.800 5 70 970 9 100 100 9 300 300 0 17.8000 120.700 4 68 970 17.8000 120.600 TS 45 975 4 291
1991289N06156 1991 80 WP MM RUTH 1991-10-28 09:00:00 TS 17.9131 120.473 main 0 0 PPPP__________ WP251991 17.9775 120.485 62 0 17.8625 120.550 5 67 972 9 90 90 9 300 300 17.8925 120.508 4 68 972 17.9200 120.350 TS 42 977 5 298
1991289N06156 1991 80 WP MM RUTH 1991-10-28 12:00:00 TS 18.0500 120.250 65 975 tokyo main 21 21 OOOO__________ jtwc_wp WP251991 18.1000 120.300 60 0 18.0000 120.300 5 65 975 9 80 80 9 300 300 0 18.0000 120.300 4 68 975 18.1000 120.100 TS 40 980 5 309
1991289N06156 1991 80 WP MM RUTH 1991-10-28 15:00:00 TS 18.2312 120.054 main 43 43 PPPP__________ WP251991 18.2850 120.178 57 0 18.2350 120.078 5 62 977 9 80 80 9 285 285 18.0700 120.092 4 63 977 18.3350 119.870 TS 37 982 5 320
1991289N06156 1991 80 WP MM RUTH 1991-10-28 18:00:00 TS 18.4500 119.900 60 980 tokyo main 74 74 OOOO__________ jtwc_wp WP251991 18.5000 120.100 55 0 18.5000 119.900 4 60 980 9 80 80 9 270 270 0 18.2000 119.900 3 58 980 18.6000 119.700 TS 35 985 5 330
1991289N06156 1991 80 WP MM RUTH 1991-10-28 21:00:00 TS 18.6800 119.781 main 90 90 PPPP__________ WP251991 18.6925 120.035 52 0 18.7075 119.777 4 57 980 9 80 80 9 260 260 18.4775 119.720 3 58 980 18.8424 119.590 TS 35 985 5 341
1991289N06156 1991 80 WP MM RUTH 1991-10-29 00:00:00 TS 18.9250 119.725 55 980 tokyo main 110 110 OOOO__________ jtwc_wp WP251991 18.9000 120.000 50 0 18.9000 119.700 4 55 980 9 80 80 9 250 250 0 18.8000 119.600 3 58 980 19.1000 119.600 TS 35 985 5 354
1991289N06156 1991 80 WP MM RUTH 1991-10-29 03:00:00 TS 19.1806 119.725 main 130 130 PPPP__________ WP251991 19.1500 119.970 47 0 19.1000 119.620 4 52 982 9 9 225 225 19.0650 119.562 3 53 982 19.4075 119.747 TS 32 987 5 8
1991289N06156 1991 80 WP MM RUTH 1991-10-29 06:00:00 TS 19.4250 119.800 50 985 tokyo main 138 138 OOOO__________ jtwc_wp WP251991 19.4000 120.000 45 0 19.3000 119.600 4 50 985 0 9 200 200 0 19.3000 119.600 3 48 985 19.7000 120.000 TD 30 990 5 24
1991289N06156 1991 80 WP MM RUTH 1991-10-29 09:00:00 TS 19.6344 119.936 main 146 146 PPPP__________ WP251991 19.6075 120.120 42 0 19.5000 119.670 4 47 987 0 9 180 180 19.5075 119.678 3 43 987 19.9225 120.278 TD 27 992 5 37
1991289N06156 1991 80 WP MM RUTH 1991-10-29 12:00:00 TS 19.8250 120.125 45 990 tokyo main 153 153 OOOO__________ jtwc_wp WP251991 19.8000 120.300 40 0 19.7000 119.800 3 45 990 0 9 160 160 0 19.7000 119.800 2 38 990 20.1000 120.600 TD 25 995 5 43
1991289N06156 1991 80 WP MM RUTH 1991-10-29 15:00:00 TS 20.0049 120.304 main 165 162 PPPP__________ WP251991 19.9999 120.478 37 0 19.8848 119.898 3 45 991 0 9 140 140 19.8848 119.898 2 33 994 20.2500 120.943 TD 25 995 5 47
1991289N06156 1991 80 WP MM RUTH 1991-10-29 18:00:00 TS 20.2000 120.550 45 992 tokyo main 180 167 OOOO__________ jtwc_wp WP251991 20.2000 120.700 35 0 20.1000 120.100 3 45 992 0 9 120 120 0 20.1000 120.100 1 29 998 20.4000 121.300 TD 25 995 7 51
1991289N06156 1991 80 WP MM RUTH 1991-10-29 21:00:00 TS 20.4348 120.880 main 167 137 PPPP__________ WP251991 20.3998 120.955 32 -1 20.3844 120.438 3 40 994 0 9 100 85 20.3700 120.483 1 29 998 20.5849 121.643 TD 27 992 8 54
1991289N06156 1991 80 WP MM RUTH 1991-10-30 00:00:00 TS 20.6933 121.280 35 996 tokyo main 140 133 OOOO__________ jtwc_wp WP251991 20.6000 121.300 30 -1 20.7000 121.000 3 35 996 0 6 80 50 0 20.7000 121.000 1 29 998 20.8000 122.000 TD 30 990 10 59
1991289N06156 1991 80 WP MM RUTH 1991-10-30 03:00:00 TS 20.9671 121.826 main 137 137 PPPP__________ WP251991 20.7924 121.748 30 -1 20.9935 121.877 3 35 997 0 6 65 50 21.0774 121.570 1 29 998 21.0427 122.390 TD 30 990 12 62
1991289N06156 1991 80 WP MM RUTH 1991-10-30 06:00:00 TS 21.2692 122.462 35 998 tokyo main 178 178 OOOO__________ jtwc_wp WP251991 21.0000 122.300 30 -1 21.3000 122.800 3 35 998 0 9 50 50 0 21.5000 122.200 1 29 998 21.3000 122.800 TD 30 990 13 61
1991289N06156 1991 80 WP MM RUTH 1991-10-30 09:00:00 TS 21.5987 123.060 main 229 229 PPP___________ WP251991 21.2124 122.921 30 -1 21.6341 123.438 3 35 999 0 9 50 50 21.9495 122.820 1 29 998 TD 13 59
1991289N06156 1991 80 WP MM RUTH 1991-10-30 12:00:00 TS 21.9667 123.700 35 1000 tokyo main 266 266 OOO___________ jtwc_wp WP251991 21.5000 123.600 30 -1 22.0000 124.000 3 35 1000 0 9 50 50 0 22.4000 123.500 1 29 998 15 58
1991289N06156 1991 80 WP MM RUTH 1991-10-30 15:00:00 TS 22.3655 124.392 main 317 317 PPP___________ WP251991 21.9275 124.307 30 -1 22.3619 124.614 3 35 1000 0 9 50 50 22.8071 124.256 1 33 999 16 58
1991289N06156 1991 80 WP MM RUTH 1991-10-30 18:00:00 MX 22.8000 125.133 35 1000 tokyo main 377 377 OOO___________ jtwc_wp WP251991 22.4000 125.000 30 -1 22.8000 125.300 3 35 1000 0 9 50 50 0 23.2000 125.100 9 38 1000 17 57
1991289N06156 1991 80 WP MM RUTH 1991-10-30 21:00:00 MX 23.2713 125.909 main 427 427 PPP___________ WP251991 22.8445 125.608 27 -1 23.3846 126.097 3 1001 0 9 23.5847 126.021 9 38 1000 18 57
1991289N06156 1991 80 WP MM RUTH 1991-10-31 00:00:00 ET 23.7818 126.782 1002 tokyo main 502 502 OOO___________ jtwc_wp WP251991 23.2000 126.200 25 -1 24.0000 127.000 6 1002 0 0 0 24.0000 127.000 9 38 1000 19 59
1991289N06156 1991 80 WP MM RUTH 1991-10-31 03:00:00 ET 24.2475 127.683 main 582 580 PPP___________ WP251991 23.3982 126.835 25 -1 24.4359 127.834 6 1002 0 0 24.4837 127.956 9 38 1001 21 61
1991289N06156 1991 80 WP MM RUTH 1991-10-31 06:00:00 ET 24.8333 128.833 1002 tokyo main 685 592 OOO___________ jtwc_wp WP251991 23.5000 127.500 25 -1 25.0000 129.000 6 1002 0 0 0 25.0000 129.000 9 38 1002 30 60
1991289N06156 1991 80 WP MM RUTH 1991-10-31 09:00:00 ET 25.7408 130.547 main 592 523 _PP___________ WP251991 -1 26.0053 130.917 6 1002 0 0 25.4763 130.177 9 38 1002 35 62
1991289N06156 1991 80 WP MM RUTH 1991-10-31 12:00:00 ET 26.5000 132.250 1002 tokyo main 525 517 _OO___________ -1 27.0000 133.000 6 1002 0 0 0 26.0000 131.500 9 38 1002 31 66
1991289N06156 1991 80 WP MM RUTH 1991-10-31 15:00:00 ET 27.0114 133.739 main 533 533 _PP___________ -1 27.4182 134.515 6 1003 0 0 26.6046 132.964 9 38 1002 29 67
1991289N06156 1991 80 WP MM RUTH 1991-10-31 18:00:00 ET 27.6500 135.250 1004 tokyo main 558 534 _OO___________ -1 28.0000 136.000 6 1004 0 0 0 27.3000 134.500 9 38 1002 34 59
1991289N06156 1991 80 WP MM RUTH 1991-10-31 21:00:00 ET 28.7715 137.012 main 525 475 _PP___________ -1 29.5057 138.057 6 1004 0 0 28.0372 135.967 9 38 1002 38 53
1991289N06156 1991 80 WP MM RUTH 1991-11-01 00:00:00 ET 29.9500 138.750 1004 tokyo main 473 443 _OO___________ -1 31.0000 140.000 6 1004 0 0 0 28.9000 137.500 9 38 1002 35 54
1991289N06156 1991 80 WP MM RUTH 1991-11-01 03:00:00 ET 30.8169 140.229 main 443 403 _PP___________ -1 31.6440 141.161 6 1004 0 0 29.9897 139.297 9 38 1002 28 57
1991289N06156 1991 80 WP MM RUTH 1991-11-01 06:00:00 ET 31.5000 141.500 1004 tokyo main 407 394 _OO___________ -1 32.0000 142.000 6 1004 0 0 0 31.0000 141.000 9 38 1002 24 58
1991289N06156 1991 80 WP MM RUTH 1991-11-01 09:00:00 ET 32.0895 142.604 main 399 399 _PP___________ -1 32.5742 142.999 6 1004 0 0 31.6049 142.210 9 33 1002 21 60
1991289N06156 1991 80 WP MM RUTH 1991-11-01 12:00:00 ET 32.5500 143.650 1004 tokyo main 419 419 _OO___________ -1 33.0000 144.000 6 1004 0 0 0 32.1000 143.300 9 29 1003 20 66
1991289N06156 1991 80 WP MM RUTH 1991-11-01 15:00:00 ET 32.8920 144.792 main 474 474 _PP___________ -1 32.9971 144.931 6 1004 0 0 32.7869 144.653 9 29 1004 21 72
1991289N06156 1991 80 WP MM RUTH 1991-11-01 18:00:00 ET 33.2000 146.050 1004 tokyo main 551 551 _OO___________ -1 33.0000 146.000 6 1004 0 0 0 33.4000 146.100 9 29 1005 24 72
1991289N06156 1991 80 WP MM RUTH 1991-11-01 21:00:00 ET 33.6381 147.515 main 646 646 _PP___________ -1 33.5030 147.493 6 1005 0 0 33.7732 147.537 9 29 1005 26 72
1991289N06156 1991 80 WP MM RUTH 1991-11-02 00:00:00 ET 34.0000 149.000 1006 tokyo main 761 761 _OO___________ -1 34.0000 149.000 6 1006 0 0 0 34.0000 149.000 9 29 1005 23 78
1991289N06156 1991 80 WP MM RUTH 1991-11-02 03:00:00 ET 34.1279 150.248 main 864 864 _PP___________ -1 34.0699 150.003 6 1006 0 0 34.1859 150.493 9 29 1005 21 86
1991289N06156 1991 80 WP MM RUTH 1991-11-02 06:00:00 ET 34.1500 151.500 1006 tokyo main 977 977 _OO___________ -1 34.0000 151.000 6 1006 0 0 0 34.3000 152.000 9 29 1005 23 88
1991289N06156 1991 80 WP MM RUTH 1991-11-02 09:00:00 ET 34.2048 152.973 main 1112 1112 _PP___________ -1 34.0006 152.425 6 1006 0 0 34.4089 153.521 9 29 1005 25 89
1991289N06156 1991 80 WP MM RUTH 1991-11-02 12:00:00 ET 34.2000 154.500 1006 tokyo main 1246 1246 _OO___________ -1 34.0000 154.000 6 1006 0 0 0 34.4000 155.000 9 29 1005 25 92
1991289N06156 1991 80 WP MM RUTH 1991-11-02 15:00:00 ET 34.1121 155.989 main 1359 1359 _PP___________ -1 34.0006 155.575 6 1006 0 0 34.2236 156.403 9 29 1005 24 96
1991289N06156 1991 80 WP MM RUTH 1991-11-02 18:00:00 ET 33.9500 157.350 1006 tokyo main 1442 1442 _OO___________ -1 34.0000 157.000 6 1006 0 0 0 33.9000 157.700 9 29 1005 21 100
1991289N06156 1991 80 WP MM RUTH 1991-11-02 21:00:00 ET 33.7383 158.492 main 1520 1520 _PP___________ -1 33.9998 158.100 6 1008 0 0 33.4768 158.885 9 29 1005 18 104
1991289N06156 1991 80 WP MM RUTH 1991-11-03 00:00:00 ET 33.5000 159.500 1010 tokyo main 1583 _OO___________ -1 34.0000 159.000 6 1010 0 0 0 33.0000 160.000 9 29 1005 17 106

Digital Typhoon Data and Search

About IBTrACS Database

This database is a web-friendly format of International Best Track Archive for Climate Stewardship (IBTrACS), a global best track data archive curated by NOAA dating back to 1842.

Updated: 2021-11-26